sensor_id;sensor_type;location;lat;lon;timestamp;P1;durP1;ratioP1;P2;durP2;ratioP2
18568;SDS011;14780;48.316;-1.050;2023-02-17T00:00:13;7.53;;;2.40;;
18568;SDS011;14780;48.316;-1.050;2023-02-17T00:02:58;7.25;;;2.20;;
18568;SDS011;14780;48.316;-1.050;2023-02-17T00:05:43;4.47;;;2.20;;
18568;SDS011;14780;48.316;-1.050;2023-02-17T00:08:28;3.50;;;2.10;;
18568;SDS011;14780;48.316;-1.050;2023-02-17T00:11:13;5.93;;;2.30;;
18568;SDS011;14780;48.316;-1.050;2023-02-17T00:13:59;4.18;;;2.00;;
18568;SDS011;14780;48.316;-1.050;2023-02-17T00:16:43;2.67;;;2.03;;
18568;SDS011;14780;48.316;-1.050;2023-02-17T00:19:28;5.15;;;1.90;;
18568;SDS011;14780;48.316;-1.050;2023-02-17T00:22:13;2.92;;;1.95;;
18568;SDS011;14780;48.316;-1.050;2023-02-17T00:24:58;3.67;;;2.00;;
18568;SDS011;14780;48.316;-1.050;2023-02-17T00:27:42;2.65;;;1.98;;
18568;SDS011;14780;48.316;-1.050;2023-02-17T00:30:27;3.20;;;2.20;;
18568;SDS011;14780;48.316;-1.050;2023-02-17T00:33:12;3.50;;;2.22;;
18568;SDS011;14780;48.316;-1.050;2023-02-17T00:35:56;5.28;;;2.13;;
18568;SDS011;14780;48.316;-1.050;2023-02-17T00:38:41;2.75;;;2.10;;
18568;SDS011;14780;48.316;-1.050;2023-02-17T00:41:26;3.58;;;1.88;;
18568;SDS011;14780;48.316;-1.050;2023-02-17T00:44:15;3.20;;;2.15;;
18568;SDS011;14780;48.316;-1.050;2023-02-17T00:47:05;2.95;;;2.10;;
18568;SDS011;14780;48.316;-1.050;2023-02-17T00:49:50;2.33;;;2.03;;
18568;SDS011;14780;48.316;-1.050;2023-02-17T00:52:34;3.65;;;1.90;;
18568;SDS011;14780;48.316;-1.050;2023-02-17T00:55:19;2.10;;;1.67;;
18568;SDS011;14780;48.316;-1.050;2023-02-17T00:58:04;2.67;;;1.88;;
18568;SDS011;14780;48.316;-1.050;2023-02-17T01:00:48;2.47;;;1.80;;
18568;SDS011;14780;48.316;-1.050;2023-02-17T01:03:33;1.55;;;1.45;;
18568;SDS011;14780;48.316;-1.050;2023-02-17T01:06:20;2.60;;;1.88;;
18568;SDS011;14780;48.316;-1.050;2023-02-17T01:09:11;2.20;;;1.80;;
18568;SDS011;14780;48.316;-1.050;2023-02-17T01:11:57;3.22;;;2.10;;
18568;SDS011;14780;48.316;-1.050;2023-02-17T01:14:42;2.72;;;2.00;;
18568;SDS011;14780;48.316;-1.050;2023-02-17T01:17:26;2.45;;;1.75;;
18568;SDS011;14780;48.316;-1.050;2023-02-17T01:20:11;2.63;;;1.83;;
18568;SDS011;14780;48.316;-1.050;2023-02-17T01:22:56;4.57;;;2.10;;
18568;SDS011;14780;48.316;-1.050;2023-02-17T01:25:42;3.03;;;2.08;;
18568;SDS011;14780;48.316;-1.050;2023-02-17T01:28:27;2.20;;;1.70;;
18568;SDS011;14780;48.316;-1.050;2023-02-17T01:31:14;2.55;;;1.80;;
18568;SDS011;14780;48.316;-1.050;2023-02-17T01:34:00;2.17;;;1.63;;
18568;SDS011;14780;48.316;-1.050;2023-02-17T01:36:46;2.63;;;1.75;;
18568;SDS011;14780;48.316;-1.050;2023-02-17T01:39:31;2.22;;;1.70;;
18568;SDS011;14780;48.316;-1.050;2023-02-17T01:42:16;1.58;;;1.48;;
18568;SDS011;14780;48.316;-1.050;2023-02-17T01:48:12;1.98;;;1.65;;
18568;SDS011;14780;48.316;-1.050;2023-02-17T01:54:04;1.70;;;1.60;;
18568;SDS011;14780;48.316;-1.050;2023-02-17T01:56:57;1.67;;;1.58;;
18568;SDS011;14780;48.316;-1.050;2023-02-17T01:59:44;1.38;;;1.27;;
18568;SDS011;14780;48.316;-1.050;2023-02-17T02:02:29;3.00;;;1.33;;
18568;SDS011;14780;48.316;-1.050;2023-02-17T02:05:15;2.25;;;1.70;;
18568;SDS011;14780;48.316;-1.050;2023-02-17T02:08:01;2.17;;;1.88;;
18568;SDS011;14780;48.316;-1.050;2023-02-17T02:10:47;1.80;;;1.50;;
18568;SDS011;14780;48.316;-1.050;2023-02-17T02:13:31;1.45;;;1.35;;
18568;SDS011;14780;48.316;-1.050;2023-02-17T02:16:28;1.50;;;1.40;;
18568;SDS011;14780;48.316;-1.050;2023-02-17T02:25:16;1.70;;;1.50;;
18568;SDS011;14780;48.316;-1.050;2023-02-17T02:31:17;1.58;;;1.33;;
18568;SDS011;14780;48.316;-1.050;2023-02-17T02:34:24;2.28;;;1.42;;
18568;SDS011;14780;48.316;-1.050;2023-02-17T02:37:31;1.60;;;1.50;;
18568;SDS011;14780;48.316;-1.050;2023-02-17T02:40:23;1.73;;;1.60;;
18568;SDS011;14780;48.316;-1.050;2023-02-17T02:43:13;1.50;;;1.40;;
18568;SDS011;14780;48.316;-1.050;2023-02-17T02:45:58;1.38;;;1.10;;
18568;SDS011;14780;48.316;-1.050;2023-02-17T02:48:43;2.03;;;1.42;;
18568;SDS011;14780;48.316;-1.050;2023-02-17T02:51:32;1.42;;;1.33;;
18568;SDS011;14780;48.316;-1.050;2023-02-17T02:54:40;1.10;;;1.10;;
18568;SDS011;14780;48.316;-1.050;2023-02-17T02:57:36;1.52;;;1.42;;
18568;SDS011;14780;48.316;-1.050;2023-02-17T03:00:56;1.52;;;1.42;;
18568;SDS011;14780;48.316;-1.050;2023-02-17T03:03:47;1.30;;;1.20;;
18568;SDS011;14780;48.316;-1.050;2023-02-17T03:06:55;1.20;;;1.13;;
18568;SDS011;14780;48.316;-1.050;2023-02-17T03:09:47;1.50;;;1.40;;
18568;SDS011;14780;48.316;-1.050;2023-02-17T03:12:37;1.23;;;1.15;;
18568;SDS011;14780;48.316;-1.050;2023-02-17T03:15:24;1.02;;;1.00;;
18568;SDS011;14780;48.316;-1.050;2023-02-17T03:18:19;1.27;;;1.17;;
18568;SDS011;14780;48.316;-1.050;2023-02-17T03:21:05;1.17;;;1.08;;
18568;SDS011;14780;48.316;-1.050;2023-02-17T03:23:57;1.13;;;1.13;;
18568;SDS011;14780;48.316;-1.050;2023-02-17T03:26:41;1.00;;;0.93;;
18568;SDS011;14780;48.316;-1.050;2023-02-17T03:29:26;1.40;;;1.30;;
18568;SDS011;14780;48.316;-1.050;2023-02-17T03:32:11;1.35;;;1.20;;
18568;SDS011;14780;48.316;-1.050;2023-02-17T03:34:56;1.20;;;1.13;;
18568;SDS011;14780;48.316;-1.050;2023-02-17T03:37:41;1.25;;;1.17;;
18568;SDS011;14780;48.316;-1.050;2023-02-17T03:40:25;1.30;;;1.20;;
18568;SDS011;14780;48.316;-1.050;2023-02-17T03:43:10;1.10;;;1.10;;
18568;SDS011;14780;48.316;-1.050;2023-02-17T03:45:55;1.08;;;1.08;;
18568;SDS011;14780;48.316;-1.050;2023-02-17T03:48:39;1.35;;;1.25;;
18568;SDS011;14780;48.316;-1.050;2023-02-17T03:51:25;1.33;;;1.23;;
18568;SDS011;14780;48.316;-1.050;2023-02-17T03:54:09;1.60;;;1.27;;
18568;SDS011;14780;48.316;-1.050;2023-02-17T03:56:54;1.15;;;1.02;;
18568;SDS011;14780;48.316;-1.050;2023-02-17T03:59:39;1.23;;;1.13;;
18568;SDS011;14780;48.316;-1.050;2023-02-17T04:02:24;1.20;;;1.10;;
18568;SDS011;14780;48.316;-1.050;2023-02-17T04:05:09;3.38;;;1.25;;
18568;SDS011;14780;48.316;-1.050;2023-02-17T04:07:54;1.05;;;1.02;;
18568;SDS011;14780;48.316;-1.050;2023-02-17T04:10:38;1.13;;;1.08;;
18568;SDS011;14780;48.316;-1.050;2023-02-17T04:13:23;0.98;;;0.98;;
18568;SDS011;14780;48.316;-1.050;2023-02-17T04:16:08;1.23;;;1.05;;
18568;SDS011;14780;48.316;-1.050;2023-02-17T04:18:54;1.77;;;1.40;;
18568;SDS011;14780;48.316;-1.050;2023-02-17T04:21:38;0.90;;;0.90;;
18568;SDS011;14780;48.316;-1.050;2023-02-17T04:24:23;0.98;;;0.98;;
18568;SDS011;14780;48.316;-1.050;2023-02-17T04:27:07;1.08;;;1.08;;
18568;SDS011;14780;48.316;-1.050;2023-02-17T04:29:52;1.23;;;1.13;;
18568;SDS011;14780;48.316;-1.050;2023-02-17T04:32:37;1.00;;;1.00;;
18568;SDS011;14780;48.316;-1.050;2023-02-17T04:35:21;0.90;;;0.90;;
18568;SDS011;14780;48.316;-1.050;2023-02-17T04:38:07;1.35;;;1.25;;
18568;SDS011;14780;48.316;-1.050;2023-02-17T04:40:54;1.20;;;1.10;;
18568;SDS011;14780;48.316;-1.050;2023-02-17T04:43:39;1.08;;;1.08;;
18568;SDS011;14780;48.316;-1.050;2023-02-17T04:46:24;1.00;;;1.00;;
18568;SDS011;14780;48.316;-1.050;2023-02-17T04:49:09;1.17;;;1.08;;
18568;SDS011;14780;48.316;-1.050;2023-02-17T04:51:53;0.63;;;0.60;;
18568;SDS011;14780;48.316;-1.050;2023-02-17T04:54:38;0.80;;;0.80;;
18568;SDS011;14780;48.316;-1.050;2023-02-17T04:57:23;0.98;;;0.98;;
18568;SDS011;14780;48.316;-1.050;2023-02-17T05:00:08;1.00;;;0.98;;
18568;SDS011;14780;48.316;-1.050;2023-02-17T05:02:53;1.83;;;1.20;;
18568;SDS011;14780;48.316;-1.050;2023-02-17T05:05:38;0.80;;;0.80;;
18568;SDS011;14780;48.316;-1.050;2023-02-17T05:08:23;1.17;;;1.10;;
18568;SDS011;14780;48.316;-1.050;2023-02-17T05:11:08;1.20;;;1.10;;
18568;SDS011;14780;48.316;-1.050;2023-02-17T05:13:53;1.27;;;1.10;;
18568;SDS011;14780;48.316;-1.050;2023-02-17T05:16:37;2.22;;;1.10;;
18568;SDS011;14780;48.316;-1.050;2023-02-17T05:19:22;1.40;;;1.30;;
18568;SDS011;14780;48.316;-1.050;2023-02-17T05:22:06;0.80;;;0.80;;
18568;SDS011;14780;48.316;-1.050;2023-02-17T05:24:51;0.82;;;0.82;;
18568;SDS011;14780;48.316;-1.050;2023-02-17T05:27:36;1.08;;;1.00;;
18568;SDS011;14780;48.316;-1.050;2023-02-17T05:30:21;1.23;;;1.13;;
18568;SDS011;14780;48.316;-1.050;2023-02-17T05:33:05;1.10;;;1.10;;
18568;SDS011;14780;48.316;-1.050;2023-02-17T05:35:50;0.90;;;0.90;;
18568;SDS011;14780;48.316;-1.050;2023-02-17T05:38:35;0.88;;;0.88;;
18568;SDS011;14780;48.316;-1.050;2023-02-17T05:41:20;2.35;;;1.30;;
18568;SDS011;14780;48.316;-1.050;2023-02-17T05:44:06;1.33;;;1.15;;
18568;SDS011;14780;48.316;-1.050;2023-02-17T05:46:50;0.93;;;0.88;;
18568;SDS011;14780;48.316;-1.050;2023-02-17T05:49:35;1.08;;;1.08;;
18568;SDS011;14780;48.316;-1.050;2023-02-17T05:52:19;0.85;;;0.85;;
18568;SDS011;14780;48.316;-1.050;2023-02-17T05:55:04;0.80;;;0.80;;
18568;SDS011;14780;48.316;-1.050;2023-02-17T05:57:49;1.73;;;1.00;;
18568;SDS011;14780;48.316;-1.050;2023-02-17T06:00:34;0.77;;;0.77;;
18568;SDS011;14780;48.316;-1.050;2023-02-17T06:03:19;1.27;;;1.00;;
18568;SDS011;14780;48.316;-1.050;2023-02-17T06:06:04;1.05;;;0.95;;
18568;SDS011;14780;48.316;-1.050;2023-02-17T06:08:49;1.02;;;1.02;;
18568;SDS011;14780;48.316;-1.050;2023-02-17T06:11:34;1.27;;;1.17;;
18568;SDS011;14780;48.316;-1.050;2023-02-17T06:14:19;1.55;;;0.98;;
18568;SDS011;14780;48.316;-1.050;2023-02-17T06:17:03;0.90;;;0.90;;
18568;SDS011;14780;48.316;-1.050;2023-02-17T06:19:48;1.15;;;1.13;;
18568;SDS011;14780;48.316;-1.050;2023-02-17T06:22:33;1.80;;;1.20;;
18568;SDS011;14780;48.316;-1.050;2023-02-17T06:25:18;1.38;;;0.98;;
18568;SDS011;14780;48.316;-1.050;2023-02-17T06:28:03;0.90;;;0.90;;
18568;SDS011;14780;48.316;-1.050;2023-02-17T06:30:47;1.13;;;1.02;;
18568;SDS011;14780;48.316;-1.050;2023-02-17T06:33:32;1.00;;;1.00;;
18568;SDS011;14780;48.316;-1.050;2023-02-17T06:36:16;0.88;;;0.88;;
18568;SDS011;14780;48.316;-1.050;2023-02-17T06:39:01;0.82;;;0.82;;
18568;SDS011;14780;48.316;-1.050;2023-02-17T06:41:46;1.67;;;1.23;;
18568;SDS011;14780;48.316;-1.050;2023-02-17T06:44:31;2.90;;;1.35;;
18568;SDS011;14780;48.316;-1.050;2023-02-17T06:47:16;2.78;;;1.30;;
18568;SDS011;14780;48.316;-1.050;2023-02-17T06:50:00;1.35;;;1.23;;
18568;SDS011;14780;48.316;-1.050;2023-02-17T06:52:46;2.00;;;1.23;;
18568;SDS011;14780;48.316;-1.050;2023-02-17T06:55:31;1.20;;;1.10;;
18568;SDS011;14780;48.316;-1.050;2023-02-17T06:58:17;1.17;;;1.08;;
18568;SDS011;14780;48.316;-1.050;2023-02-17T07:01:02;1.13;;;1.02;;
18568;SDS011;14780;48.316;-1.050;2023-02-17T07:03:48;2.00;;;1.20;;
18568;SDS011;14780;48.316;-1.050;2023-02-17T07:06:32;1.08;;;1.00;;
18568;SDS011;14780;48.316;-1.050;2023-02-17T07:09:17;1.77;;;1.10;;
18568;SDS011;14780;48.316;-1.050;2023-02-17T07:12:02;2.47;;;1.15;;
18568;SDS011;14780;48.316;-1.050;2023-02-17T07:14:47;1.90;;;1.20;;
18568;SDS011;14780;48.316;-1.050;2023-02-17T07:17:31;1.17;;;1.08;;
18568;SDS011;14780;48.316;-1.050;2023-02-17T07:20:16;3.38;;;1.02;;
18568;SDS011;14780;48.316;-1.050;2023-02-17T07:23:00;3.30;;;1.27;;
18568;SDS011;14780;48.316;-1.050;2023-02-17T07:25:45;4.38;;;1.23;;
18568;SDS011;14780;48.316;-1.050;2023-02-17T07:28:30;3.50;;;1.10;;
18568;SDS011;14780;48.316;-1.050;2023-02-17T07:31:15;2.60;;;1.20;;
18568;SDS011;14780;48.316;-1.050;2023-02-17T07:34:01;1.30;;;1.20;;
18568;SDS011;14780;48.316;-1.050;2023-02-17T07:36:46;2.22;;;1.20;;
18568;SDS011;14780;48.316;-1.050;2023-02-17T07:39:31;2.63;;;1.20;;
18568;SDS011;14780;48.316;-1.050;2023-02-17T07:42:16;2.53;;;1.27;;
18568;SDS011;14780;48.316;-1.050;2023-02-17T07:45:01;1.10;;;1.00;;
18568;SDS011;14780;48.316;-1.050;2023-02-17T07:47:46;3.28;;;1.48;;
18568;SDS011;14780;48.316;-1.050;2023-02-17T07:50:31;3.25;;;1.50;;
18568;SDS011;14780;48.316;-1.050;2023-02-17T07:53:16;1.92;;;1.30;;
18568;SDS011;14780;48.316;-1.050;2023-02-17T07:56:01;2.70;;;0.77;;
18568;SDS011;14780;48.316;-1.050;2023-02-17T07:58:47;3.15;;;1.35;;
18568;SDS011;14780;48.316;-1.050;2023-02-17T08:01:32;1.55;;;1.20;;
18568;SDS011;14780;48.316;-1.050;2023-02-17T08:04:16;4.07;;;1.20;;
18568;SDS011;14780;48.316;-1.050;2023-02-17T08:07:02;1.10;;;1.00;;
18568;SDS011;14780;48.316;-1.050;2023-02-17T08:09:46;2.25;;;1.48;;
18568;SDS011;14780;48.316;-1.050;2023-02-17T08:12:50;4.55;;;1.60;;
18568;SDS011;14780;48.316;-1.050;2023-02-17T08:15:53;1.10;;;1.00;;
18568;SDS011;14780;48.316;-1.050;2023-02-17T08:18:38;1.85;;;1.20;;
18568;SDS011;14780;48.316;-1.050;2023-02-17T08:21:24;2.05;;;1.20;;
18568;SDS011;14780;48.316;-1.050;2023-02-17T08:24:10;2.42;;;1.50;;
18568;SDS011;14780;48.316;-1.050;2023-02-17T08:26:54;1.33;;;1.23;;
18568;SDS011;14780;48.316;-1.050;2023-02-17T08:29:42;2.38;;;1.08;;
18568;SDS011;14780;48.316;-1.050;2023-02-17T08:32:27;3.58;;;1.30;;
18568;SDS011;14780;48.316;-1.050;2023-02-17T08:35:12;2.80;;;1.50;;
18568;SDS011;14780;48.316;-1.050;2023-02-17T08:37:57;1.63;;;1.20;;
18568;SDS011;14780;48.316;-1.050;2023-02-17T08:40:41;1.65;;;1.33;;
18568;SDS011;14780;48.316;-1.050;2023-02-17T08:43:26;1.70;;;1.42;;
18568;SDS011;14780;48.316;-1.050;2023-02-17T08:46:11;3.15;;;1.70;;
18568;SDS011;14780;48.316;-1.050;2023-02-17T08:48:57;2.70;;;1.42;;
18568;SDS011;14780;48.316;-1.050;2023-02-17T08:51:41;3.72;;;1.80;;
18568;SDS011;14780;48.316;-1.050;2023-02-17T08:54:26;4.30;;;1.83;;
18568;SDS011;14780;48.316;-1.050;2023-02-17T08:57:11;2.85;;;1.60;;
18568;SDS011;14780;48.316;-1.050;2023-02-17T08:59:56;3.53;;;1.50;;
18568;SDS011;14780;48.316;-1.050;2023-02-17T09:02:41;2.25;;;1.65;;
18568;SDS011;14780;48.316;-1.050;2023-02-17T09:05:27;2.78;;;1.67;;
18568;SDS011;14780;48.316;-1.050;2023-02-17T09:08:12;3.13;;;1.52;;
18568;SDS011;14780;48.316;-1.050;2023-02-17T09:10:56;2.28;;;1.58;;
18568;SDS011;14780;48.316;-1.050;2023-02-17T09:13:42;2.47;;;1.80;;
18568;SDS011;14780;48.316;-1.050;2023-02-17T09:16:27;3.78;;;1.70;;
18568;SDS011;14780;48.316;-1.050;2023-02-17T09:19:13;2.72;;;1.80;;
18568;SDS011;14780;48.316;-1.050;2023-02-17T09:21:58;4.00;;;1.80;;
18568;SDS011;14780;48.316;-1.050;2023-02-17T09:24:43;3.38;;;1.80;;
18568;SDS011;14780;48.316;-1.050;2023-02-17T09:27:29;4.70;;;2.03;;
18568;SDS011;14780;48.316;-1.050;2023-02-17T09:30:13;4.55;;;2.00;;
18568;SDS011;14780;48.316;-1.050;2023-02-17T09:32:59;4.35;;;1.50;;
18568;SDS011;14780;48.316;-1.050;2023-02-17T09:35:44;3.63;;;1.83;;
18568;SDS011;14780;48.316;-1.050;2023-02-17T09:38:28;4.57;;;2.33;;
18568;SDS011;14780;48.316;-1.050;2023-02-17T09:41:15;3.60;;;2.10;;
18568;SDS011;14780;48.316;-1.050;2023-02-17T09:44:20;2.80;;;2.17;;
18568;SDS011;14780;48.316;-1.050;2023-02-17T09:47:12;4.07;;;2.17;;
18568;SDS011;14780;48.316;-1.050;2023-02-17T09:56:39;2.75;;;1.90;;
18568;SDS011;14780;48.316;-1.050;2023-02-17T09:59:31;1.90;;;1.58;;
18568;SDS011;14780;48.316;-1.050;2023-02-17T10:05:19;2.25;;;1.63;;
18568;SDS011;14780;48.316;-1.050;2023-02-17T10:08:16;2.30;;;1.90;;
18568;SDS011;14780;48.316;-1.050;2023-02-17T10:11:24;3.78;;;1.67;;
18568;SDS011;14780;48.316;-1.050;2023-02-17T10:14:18;2.10;;;1.67;;
18568;SDS011;14780;48.316;-1.050;2023-02-17T10:17:14;1.77;;;1.40;;
18568;SDS011;14780;48.316;-1.050;2023-02-17T10:22:54;1.92;;;1.58;;
18568;SDS011;14780;48.316;-1.050;2023-02-17T10:28:56;2.65;;;1.75;;
18568;SDS011;14780;48.316;-1.050;2023-02-17T10:35:21;3.97;;;1.80;;
18568;SDS011;14780;48.316;-1.050;2023-02-17T10:41:44;1.88;;;1.65;;
18568;SDS011;14780;48.316;-1.050;2023-02-17T11:11:50;4.53;;;2.40;;
18568;SDS011;14780;48.316;-1.050;2023-02-17T11:14:45;3.30;;;2.40;;
18568;SDS011;14780;48.316;-1.050;2023-02-17T11:17:39;2.95;;;2.20;;
18568;SDS011;14780;48.316;-1.050;2023-02-17T11:23:20;3.30;;;2.25;;
18568;SDS011;14780;48.316;-1.050;2023-02-17T11:26:15;4.50;;;2.50;;
18568;SDS011;14780;48.316;-1.050;2023-02-17T11:29:17;4.30;;;2.40;;
18568;SDS011;14780;48.316;-1.050;2023-02-17T11:32:07;2.92;;;2.38;;
18568;SDS011;14780;48.316;-1.050;2023-02-17T11:34:56;3.42;;;2.15;;
18568;SDS011;14780;48.316;-1.050;2023-02-17T11:37:43;3.13;;;2.42;;
18568;SDS011;14780;48.316;-1.050;2023-02-17T11:40:29;3.28;;;2.40;;
18568;SDS011;14780;48.316;-1.050;2023-02-17T11:43:16;3.33;;;2.40;;
18568;SDS011;14780;48.316;-1.050;2023-02-17T11:47:07;4.13;;;2.50;;
18568;SDS011;14780;48.316;-1.050;2023-02-17T12:05:59;2.13;;;1.60;;
18568;SDS011;14780;48.316;-1.050;2023-02-17T12:15:09;4.18;;;1.95;;
18568;SDS011;14780;48.316;-1.050;2023-02-17T12:36:17;4.30;;;2.08;;
18568;SDS011;14780;48.316;-1.050;2023-02-17T12:39:17;6.10;;;1.80;;
18568;SDS011;14780;48.316;-1.050;2023-02-17T12:42:19;4.07;;;2.00;;
18568;SDS011;14780;48.316;-1.050;2023-02-17T12:45:34;3.45;;;1.85;;
18568;SDS011;14780;48.316;-1.050;2023-02-17T12:48:25;3.00;;;1.75;;
18568;SDS011;14780;48.316;-1.050;2023-02-17T12:51:40;3.30;;;1.98;;
18568;SDS011;14780;48.316;-1.050;2023-02-17T12:54:37;3.50;;;2.03;;
18568;SDS011;14780;48.316;-1.050;2023-02-17T12:57:40;6.50;;;1.85;;
18568;SDS011;14780;48.316;-1.050;2023-02-17T13:00:41;2.13;;;1.70;;
18568;SDS011;14780;48.316;-1.050;2023-02-17T13:27:29;3.65;;;2.10;;
18568;SDS011;14780;48.316;-1.050;2023-02-17T13:30:27;3.60;;;2.20;;
18568;SDS011;14780;48.316;-1.050;2023-02-17T13:36:11;4.68;;;2.10;;
18568;SDS011;14780;48.316;-1.050;2023-02-17T13:39:00;5.10;;;2.20;;
18568;SDS011;14780;48.316;-1.050;2023-02-17T13:42:51;2.65;;;2.08;;
18568;SDS011;14780;48.316;-1.050;2023-02-17T13:45:26;2.60;;;2.00;;
18568;SDS011;14780;48.316;-1.050;2023-02-17T13:51:23;3.75;;;2.10;;
18568;SDS011;14780;48.316;-1.050;2023-02-17T13:54:11;3.78;;;2.25;;
18568;SDS011;14780;48.316;-1.050;2023-02-17T13:56:57;3.20;;;2.08;;
18568;SDS011;14780;48.316;-1.050;2023-02-17T13:59:42;3.50;;;2.28;;
18568;SDS011;14780;48.316;-1.050;2023-02-17T14:02:27;3.28;;;2.10;;
18568;SDS011;14780;48.316;-1.050;2023-02-17T14:05:16;5.20;;;2.00;;
18568;SDS011;14780;48.316;-1.050;2023-02-17T14:11:30;3.33;;;1.90;;
18568;SDS011;14780;48.316;-1.050;2023-02-17T14:14:14;3.80;;;2.13;;
18568;SDS011;14780;48.316;-1.050;2023-02-17T14:17:14;3.35;;;2.28;;
18568;SDS011;14780;48.316;-1.050;2023-02-17T14:23:11;4.28;;;2.20;;
18568;SDS011;14780;48.316;-1.050;2023-02-17T14:25:56;2.95;;;2.10;;
18568;SDS011;14780;48.316;-1.050;2023-02-17T14:28:55;3.92;;;2.20;;
18568;SDS011;14780;48.316;-1.050;2023-02-17T14:31:44;3.72;;;2.22;;
18568;SDS011;14780;48.316;-1.050;2023-02-17T14:34:32;3.90;;;2.30;;
18568;SDS011;14780;48.316;-1.050;2023-02-17T14:37:19;6.18;;;2.50;;
18568;SDS011;14780;48.316;-1.050;2023-02-17T14:40:15;3.10;;;2.30;;
18568;SDS011;14780;48.316;-1.050;2023-02-17T14:43:02;4.22;;;2.25;;
18568;SDS011;14780;48.316;-1.050;2023-02-17T14:45:47;3.78;;;2.25;;
18568;SDS011;14780;48.316;-1.050;2023-02-17T14:48:32;3.70;;;2.30;;
18568;SDS011;14780;48.316;-1.050;2023-02-17T14:51:21;3.35;;;2.53;;
18568;SDS011;14780;48.316;-1.050;2023-02-17T14:54:14;4.40;;;2.78;;
18568;SDS011;14780;48.316;-1.050;2023-02-17T14:57:05;4.88;;;2.42;;
18568;SDS011;14780;48.316;-1.050;2023-02-17T14:59:50;5.15;;;2.55;;
18568;SDS011;14780;48.316;-1.050;2023-02-17T15:02:40;3.88;;;2.65;;
18568;SDS011;14780;48.316;-1.050;2023-02-17T15:05:25;3.95;;;2.50;;
18568;SDS011;14780;48.316;-1.050;2023-02-17T15:08:10;4.22;;;2.60;;
18568;SDS011;14780;48.316;-1.050;2023-02-17T15:11:13;3.23;;;2.40;;
18568;SDS011;14780;48.316;-1.050;2023-02-17T15:14:02;4.35;;;2.70;;
18568;SDS011;14780;48.316;-1.050;2023-02-17T15:16:48;5.55;;;2.70;;
18568;SDS011;14780;48.316;-1.050;2023-02-17T15:19:33;4.53;;;2.90;;
18568;SDS011;14780;48.316;-1.050;2023-02-17T15:22:18;4.97;;;3.03;;
18568;SDS011;14780;48.316;-1.050;2023-02-17T15:25:08;3.92;;;2.60;;
18568;SDS011;14780;48.316;-1.050;2023-02-17T15:27:59;4.28;;;2.65;;
18568;SDS011;14780;48.316;-1.050;2023-02-17T15:30:45;4.18;;;2.97;;
18568;SDS011;14780;48.316;-1.050;2023-02-17T15:33:35;5.28;;;2.83;;
18568;SDS011;14780;48.316;-1.050;2023-02-17T15:36:20;5.40;;;3.05;;
18568;SDS011;14780;48.316;-1.050;2023-02-17T15:39:08;4.18;;;2.90;;
18568;SDS011;14780;48.316;-1.050;2023-02-17T15:41:54;5.63;;;3.15;;
18568;SDS011;14780;48.316;-1.050;2023-02-17T15:44:44;6.53;;;3.28;;
18568;SDS011;14780;48.316;-1.050;2023-02-17T15:47:31;4.97;;;3.10;;
18568;SDS011;14780;48.316;-1.050;2023-02-17T15:50:18;5.60;;;3.20;;
18568;SDS011;14780;48.316;-1.050;2023-02-17T15:53:05;5.82;;;3.60;;
18568;SDS011;14780;48.316;-1.050;2023-02-17T15:55:50;6.88;;;3.47;;
18568;SDS011;14780;48.316;-1.050;2023-02-17T15:58:35;6.05;;;3.50;;
18568;SDS011;14780;48.316;-1.050;2023-02-17T16:01:29;5.32;;;3.47;;
18568;SDS011;14780;48.316;-1.050;2023-02-17T16:04:15;5.90;;;3.25;;
18568;SDS011;14780;48.316;-1.050;2023-02-17T16:07:00;6.20;;;3.63;;
18568;SDS011;14780;48.316;-1.050;2023-02-17T16:09:45;4.68;;;3.13;;
18568;SDS011;14780;48.316;-1.050;2023-02-17T16:12:29;5.38;;;3.28;;
18568;SDS011;14780;48.316;-1.050;2023-02-17T16:15:15;5.47;;;3.42;;
18568;SDS011;14780;48.316;-1.050;2023-02-17T16:18:02;5.47;;;3.55;;
18568;SDS011;14780;48.316;-1.050;2023-02-17T16:20:47;6.97;;;3.70;;
18568;SDS011;14780;48.316;-1.050;2023-02-17T16:23:32;6.10;;;3.40;;
18568;SDS011;14780;48.316;-1.050;2023-02-17T16:26:21;5.38;;;3.30;;
18568;SDS011;14780;48.316;-1.050;2023-02-17T16:29:18;5.13;;;3.28;;
18568;SDS011;14780;48.316;-1.050;2023-02-17T16:32:04;5.30;;;3.35;;
18568;SDS011;14780;48.316;-1.050;2023-02-17T16:34:49;5.38;;;3.42;;
18568;SDS011;14780;48.316;-1.050;2023-02-17T16:37:34;5.68;;;3.50;;
18568;SDS011;14780;48.316;-1.050;2023-02-17T16:40:20;4.88;;;3.25;;
18568;SDS011;14780;48.316;-1.050;2023-02-17T16:43:08;5.40;;;3.22;;
18568;SDS011;14780;48.316;-1.050;2023-02-17T16:45:55;5.47;;;3.30;;
18568;SDS011;14780;48.316;-1.050;2023-02-17T16:48:44;5.90;;;3.15;;
18568;SDS011;14780;48.316;-1.050;2023-02-17T16:51:29;4.50;;;3.00;;
18568;SDS011;14780;48.316;-1.050;2023-02-17T16:54:14;4.72;;;3.28;;
18568;SDS011;14780;48.316;-1.050;2023-02-17T16:57:00;4.60;;;3.33;;
18568;SDS011;14780;48.316;-1.050;2023-02-17T16:59:45;6.35;;;3.50;;
18568;SDS011;14780;48.316;-1.050;2023-02-17T17:02:31;5.63;;;3.25;;
18568;SDS011;14780;48.316;-1.050;2023-02-17T17:05:16;5.32;;;3.55;;
18568;SDS011;14780;48.316;-1.050;2023-02-17T17:08:02;6.00;;;3.35;;
18568;SDS011;14780;48.316;-1.050;2023-02-17T17:10:47;6.85;;;3.75;;
18568;SDS011;14780;48.316;-1.050;2023-02-17T17:13:32;6.30;;;3.30;;
18568;SDS011;14780;48.316;-1.050;2023-02-17T17:16:21;7.03;;;3.90;;
18568;SDS011;14780;48.316;-1.050;2023-02-17T17:19:12;5.60;;;3.53;;
18568;SDS011;14780;48.316;-1.050;2023-02-17T17:21:57;8.10;;;3.63;;
18568;SDS011;14780;48.316;-1.050;2023-02-17T17:24:41;9.40;;;3.85;;
18568;SDS011;14780;48.316;-1.050;2023-02-17T17:27:26;6.22;;;3.50;;
18568;SDS011;14780;48.316;-1.050;2023-02-17T17:30:14;5.70;;;3.50;;
18568;SDS011;14780;48.316;-1.050;2023-02-17T17:33:05;13.00;;;4.20;;
18568;SDS011;14780;48.316;-1.050;2023-02-17T17:35:51;6.85;;;3.72;;
18568;SDS011;14780;48.316;-1.050;2023-02-17T17:38:36;7.10;;;4.18;;
18568;SDS011;14780;48.316;-1.050;2023-02-17T17:41:21;23.27;;;11.68;;
18568;SDS011;14780;48.316;-1.050;2023-02-17T17:44:07;18.10;;;10.18;;
18568;SDS011;14780;48.316;-1.050;2023-02-17T17:46:52;131.02;;;65.50;;
18568;SDS011;14780;48.316;-1.050;2023-02-17T17:49:37;256.58;;;139.15;;
18568;SDS011;14780;48.316;-1.050;2023-02-17T17:52:21;341.23;;;195.77;;
18568;SDS011;14780;48.316;-1.050;2023-02-17T17:55:07;396.15;;;235.05;;
18568;SDS011;14780;48.316;-1.050;2023-02-17T17:57:51;398.38;;;233.75;;
18568;SDS011;14780;48.316;-1.050;2023-02-17T18:00:36;402.00;;;233.57;;
18568;SDS011;14780;48.316;-1.050;2023-02-17T18:03:20;394.23;;;228.63;;
18568;SDS011;14780;48.316;-1.050;2023-02-17T18:06:05;381.45;;;220.38;;
18568;SDS011;14780;48.316;-1.050;2023-02-17T18:08:58;362.13;;;204.32;;
18568;SDS011;14780;48.316;-1.050;2023-02-17T18:11:45;329.90;;;188.60;;
18568;SDS011;14780;48.316;-1.050;2023-02-17T18:14:33;328.77;;;185.55;;
18568;SDS011;14780;48.316;-1.050;2023-02-17T18:17:20;309.70;;;177.73;;
18568;SDS011;14780;48.316;-1.050;2023-02-17T18:20:07;334.45;;;187.55;;
18568;SDS011;14780;48.316;-1.050;2023-02-17T18:22:52;301.13;;;175.35;;
18568;SDS011;14780;48.316;-1.050;2023-02-17T18:25:37;266.08;;;155.43;;
18568;SDS011;14780;48.316;-1.050;2023-02-17T18:28:21;283.67;;;151.35;;
18568;SDS011;14780;48.316;-1.050;2023-02-17T18:31:07;255.50;;;141.50;;
18568;SDS011;14780;48.316;-1.050;2023-02-17T18:33:54;231.40;;;131.30;;
18568;SDS011;14780;48.316;-1.050;2023-02-17T18:36:39;225.55;;;128.40;;
18568;SDS011;14780;48.316;-1.050;2023-02-17T18:39:24;220.95;;;128.10;;
18568;SDS011;14780;48.316;-1.050;2023-02-17T18:42:09;208.95;;;122.32;;
18568;SDS011;14780;48.316;-1.050;2023-02-17T18:44:53;194.80;;;114.03;;
18568;SDS011;14780;48.316;-1.050;2023-02-17T18:47:39;198.15;;;112.70;;
18568;SDS011;14780;48.316;-1.050;2023-02-17T18:50:25;197.50;;;113.60;;
18568;SDS011;14780;48.316;-1.050;2023-02-17T18:53:10;181.43;;;106.53;;
18568;SDS011;14780;48.316;-1.050;2023-02-17T18:55:54;177.13;;;98.70;;